sensor_id;sensor_type;location;lat;lon;timestamp;temperature;humidity
26655;DHT22;14278;50.784;4.630;2024-02-26T00:02:17;7.10;99.90
26655;DHT22;14278;50.784;4.630;2024-02-26T00:04:43;7.10;99.90
26655;DHT22;14278;50.784;4.630;2024-02-26T00:07:10;7.10;99.90
26655;DHT22;14278;50.784;4.630;2024-02-26T00:09:51;7.10;99.90
26655;DHT22;14278;50.784;4.630;2024-02-26T00:12:17;7.10;99.90
26655;DHT22;14278;50.784;4.630;2024-02-26T00:14:50;6.90;99.90
26655;DHT22;14278;50.784;4.630;2024-02-26T00:17:16;6.90;99.90
26655;DHT22;14278;50.784;4.630;2024-02-26T00:19:42;7.10;99.90
26655;DHT22;14278;50.784;4.630;2024-02-26T00:22:08;7.20;99.90
26655;DHT22;14278;50.784;4.630;2024-02-26T00:24:37;7.20;99.90
26655;DHT22;14278;50.784;4.630;2024-02-26T00:27:02;7.20;99.90
26655;DHT22;14278;50.784;4.630;2024-02-26T00:29:28;7.30;99.90
26655;DHT22;14278;50.784;4.630;2024-02-26T00:31:55;7.20;99.90
26655;DHT22;14278;50.784;4.630;2024-02-26T00:34:21;6.90;99.90
26655;DHT22;14278;50.784;4.630;2024-02-26T00:36:46;6.90;99.90
26655;DHT22;14278;50.784;4.630;2024-02-26T00:39:12;7.00;99.90
26655;DHT22;14278;50.784;4.630;2024-02-26T00:41:39;7.00;99.90
26655;DHT22;14278;50.784;4.630;2024-02-26T00:44:12;6.90;99.90
26655;DHT22;14278;50.784;4.630;2024-02-26T00:46:58;6.80;99.90
26655;DHT22;14278;50.784;4.630;2024-02-26T00:49:24;6.70;99.90
26655;DHT22;14278;50.784;4.630;2024-02-26T00:51:53;6.70;99.90
26655;DHT22;14278;50.784;4.630;2024-02-26T00:54:19;6.90;99.90
26655;DHT22;14278;50.784;4.630;2024-02-26T00:56:44;6.90;99.90
26655;DHT22;14278;50.784;4.630;2024-02-26T00:59:10;6.70;99.90
26655;DHT22;14278;50.784;4.630;2024-02-26T01:01:36;6.80;99.90
26655;DHT22;14278;50.784;4.630;2024-02-26T01:04:02;6.90;99.90
26655;DHT22;14278;50.784;4.630;2024-02-26T01:06:28;6.80;99.90
26655;DHT22;14278;50.784;4.630;2024-02-26T01:08:54;6.90;99.90
26655;DHT22;14278;50.784;4.630;2024-02-26T01:11:19;6.90;99.90
26655;DHT22;14278;50.784;4.630;2024-02-26T01:13:45;6.70;99.90
26655;DHT22;14278;50.784;4.630;2024-02-26T01:16:11;6.90;99.90
26655;DHT22;14278;50.784;4.630;2024-02-26T01:18:38;6.80;99.90
26655;DHT22;14278;50.784;4.630;2024-02-26T01:21:05;6.80;99.90
26655;DHT22;14278;50.784;4.630;2024-02-26T01:23:53;6.80;99.90
26655;DHT22;14278;50.784;4.630;2024-02-26T01:26:19;6.60;99.90
26655;DHT22;14278;50.784;4.630;2024-02-26T01:28:44;6.50;99.90
26655;DHT22;14278;50.784;4.630;2024-02-26T01:31:10;6.50;99.90
26655;DHT22;14278;50.784;4.630;2024-02-26T01:33:36;6.60;99.90
26655;DHT22;14278;50.784;4.630;2024-02-26T01:36:02;6.90;99.90
26655;DHT22;14278;50.784;4.630;2024-02-26T01:38:28;6.90;99.90
26655;DHT22;14278;50.784;4.630;2024-02-26T01:41:08;6.80;99.90
26655;DHT22;14278;50.784;4.630;2024-02-26T01:43:44;6.80;99.90
26655;DHT22;14278;50.784;4.630;2024-02-26T01:46:13;6.90;99.90
26655;DHT22;14278;50.784;4.630;2024-02-26T01:48:42;6.80;99.90
26655;DHT22;14278;50.784;4.630;2024-02-26T01:51:09;7.00;99.90
26655;DHT22;14278;50.784;4.630;2024-02-26T01:53:35;6.90;99.90
26655;DHT22;14278;50.784;4.630;2024-02-26T01:56:01;6.80;99.90
26655;DHT22;14278;50.784;4.630;2024-02-26T01:58:29;6.80;99.90
26655;DHT22;14278;50.784;4.630;2024-02-26T02:00:56;6.80;99.90
26655;DHT22;14278;50.784;4.630;2024-02-26T02:03:22;7.00;99.90
26655;DHT22;14278;50.784;4.630;2024-02-26T02:05:48;7.10;99.90
26655;DHT22;14278;50.784;4.630;2024-02-26T02:08:14;7.10;99.90
26655;DHT22;14278;50.784;4.630;2024-02-26T02:10:41;7.20;99.90
26655;DHT22;14278;50.784;4.630;2024-02-26T02:13:07;7.20;99.90
26655;DHT22;14278;50.784;4.630;2024-02-26T02:15:33;7.20;99.90
26655;DHT22;14278;50.784;4.630;2024-02-26T02:17:59;6.80;99.90
26655;DHT22;14278;50.784;4.630;2024-02-26T02:20:32;6.80;99.90
26655;DHT22;14278;50.784;4.630;2024-02-26T02:22:58;6.80;99.90
26655;DHT22;14278;50.784;4.630;2024-02-26T02:25:24;6.90;99.90
26655;DHT22;14278;50.784;4.630;2024-02-26T02:27:58;6.90;99.90
26655;DHT22;14278;50.784;4.630;2024-02-26T02:30:44;6.80;99.90
26655;DHT22;14278;50.784;4.630;2024-02-26T02:33:10;6.70;99.90
26655;DHT22;14278;50.784;4.630;2024-02-26T02:35:37;6.80;99.90
26655;DHT22;14278;50.784;4.630;2024-02-26T02:38:03;6.70;99.90
26655;DHT22;14278;50.784;4.630;2024-02-26T02:40:50;6.60;99.90
26655;DHT22;14278;50.784;4.630;2024-02-26T02:48:33;6.60;99.90
26655;DHT22;14278;50.784;4.630;2024-02-26T02:51:12;6.70;99.90
26655;DHT22;14278;50.784;4.630;2024-02-26T02:53:38;6.50;99.90
26655;DHT22;14278;50.784;4.630;2024-02-26T02:58:36;6.70;99.90
26655;DHT22;14278;50.784;4.630;2024-02-26T03:01:02;6.80;99.90
26655;DHT22;14278;50.784;4.630;2024-02-26T03:03:29;6.60;99.90
26655;DHT22;14278;50.784;4.630;2024-02-26T03:06:21;6.70;99.90
26655;DHT22;14278;50.784;4.630;2024-02-26T03:08:50;6.60;99.90
26655;DHT22;14278;50.784;4.630;2024-02-26T03:26:24;6.80;99.90
26655;DHT22;14278;50.784;4.630;2024-02-26T03:28:50;6.70;99.90
26655;DHT22;14278;50.784;4.630;2024-02-26T03:36:35;6.70;99.90
26655;DHT22;14278;50.784;4.630;2024-02-26T03:47:10;6.60;99.90
26655;DHT22;14278;50.784;4.630;2024-02-26T03:49:36;6.80;99.90
26655;DHT22;14278;50.784;4.630;2024-02-26T03:59:49;6.50;99.90
26655;DHT22;14278;50.784;4.630;2024-02-26T04:04:51;6.80;99.90
26655;DHT22;14278;50.784;4.630;2024-02-26T04:12:30;6.80;99.90
26655;DHT22;14278;50.784;4.630;2024-02-26T04:20:04;6.30;99.90
26655;DHT22;14278;50.784;4.630;2024-02-26T04:25:08;6.50;99.90
26655;DHT22;14278;50.784;4.630;2024-02-26T04:27:35;6.40;99.90
26655;DHT22;14278;50.784;4.630;2024-02-26T04:30:02;6.40;99.90
26655;DHT22;14278;50.784;4.630;2024-02-26T04:32:29;6.50;99.90
26655;DHT22;14278;50.784;4.630;2024-02-26T04:34:55;6.50;99.90
26655;DHT22;14278;50.784;4.630;2024-02-26T04:37:20;6.40;99.90
26655;DHT22;14278;50.784;4.630;2024-02-26T04:39:46;6.60;99.90
26655;DHT22;14278;50.784;4.630;2024-02-26T04:42:12;6.40;99.90
26655;DHT22;14278;50.784;4.630;2024-02-26T04:44:41;6.60;99.90
26655;DHT22;14278;50.784;4.630;2024-02-26T04:52:23;6.70;99.90
26655;DHT22;14278;50.784;4.630;2024-02-26T04:54:49;6.60;99.90
26655;DHT22;14278;50.784;4.630;2024-02-26T04:57:14;6.60;99.90
26655;DHT22;14278;50.784;4.630;2024-02-26T04:59:40;6.60;99.90
26655;DHT22;14278;50.784;4.630;2024-02-26T05:02:07;6.60;99.90
26655;DHT22;14278;50.784;4.630;2024-02-26T05:04:33;6.50;99.90
26655;DHT22;14278;50.784;4.630;2024-02-26T05:06:59;6.50;99.90
26655;DHT22;14278;50.784;4.630;2024-02-26T05:09:24;6.50;99.90
26655;DHT22;14278;50.784;4.630;2024-02-26T05:11:50;6.50;99.90
26655;DHT22;14278;50.784;4.630;2024-02-26T05:14:16;6.30;99.90
26655;DHT22;14278;50.784;4.630;2024-02-26T05:16:41;6.20;99.90
26655;DHT22;14278;50.784;4.630;2024-02-26T05:21:45;6.40;99.90
26655;DHT22;14278;50.784;4.630;2024-02-26T05:24:12;6.20;99.90
26655;DHT22;14278;50.784;4.630;2024-02-26T05:26:41;6.50;99.90
26655;DHT22;14278;50.784;4.630;2024-02-26T05:31:42;6.60;99.90
26655;DHT22;14278;50.784;4.630;2024-02-26T05:34:08;6.70;99.90
26655;DHT22;14278;50.784;4.630;2024-02-26T05:36:34;6.60;99.90
26655;DHT22;14278;50.784;4.630;2024-02-26T05:39:02;6.50;99.90
26655;DHT22;14278;50.784;4.630;2024-02-26T05:43:59;6.40;99.90
26655;DHT22;14278;50.784;4.630;2024-02-26T05:46:26;6.30;99.90
26655;DHT22;14278;50.784;4.630;2024-02-26T05:54:03;6.40;99.90
26655;DHT22;14278;50.784;4.630;2024-02-26T05:56:29;6.50;99.90
26655;DHT22;14278;50.784;4.630;2024-02-26T05:58:54;6.60;99.90
26655;DHT22;14278;50.784;4.630;2024-02-26T06:09:13;6.30;99.90
26655;DHT22;14278;50.784;4.630;2024-02-26T06:11:39;6.20;99.90
26655;DHT22;14278;50.784;4.630;2024-02-26T06:14:05;6.20;99.90
26655;DHT22;14278;50.784;4.630;2024-02-26T06:16:31;6.40;99.90
26655;DHT22;14278;50.784;4.630;2024-02-26T06:21:32;6.50;99.90
26655;DHT22;14278;50.784;4.630;2024-02-26T06:23:57;6.40;99.90
26655;DHT22;14278;50.784;4.630;2024-02-26T06:26:24;6.50;99.90
26655;DHT22;14278;50.784;4.630;2024-02-26T06:31:33;6.30;99.90
26655;DHT22;14278;50.784;4.630;2024-02-26T06:34:05;6.30;99.90
26655;DHT22;14278;50.784;4.630;2024-02-26T06:39:01;6.20;99.90
26655;DHT22;14278;50.784;4.630;2024-02-26T06:41:26;6.20;99.90
26655;DHT22;14278;50.784;4.630;2024-02-26T06:43:54;6.30;99.90
26655;DHT22;14278;50.784;4.630;2024-02-26T06:46:20;6.40;99.90
26655;DHT22;14278;50.784;4.630;2024-02-26T06:48:48;6.40;99.90
26655;DHT22;14278;50.784;4.630;2024-02-26T06:51:13;6.70;99.90
26655;DHT22;14278;50.784;4.630;2024-02-26T06:56:14;6.80;99.90
26655;DHT22;14278;50.784;4.630;2024-02-26T06:58:40;6.50;99.90
26655;DHT22;14278;50.784;4.630;2024-02-26T07:01:06;6.50;99.90
26655;DHT22;14278;50.784;4.630;2024-02-26T07:03:34;6.50;99.90
26655;DHT22;14278;50.784;4.630;2024-02-26T07:06:00;6.50;99.90
26655;DHT22;14278;50.784;4.630;2024-02-26T07:08:26;6.60;99.90
26655;DHT22;14278;50.784;4.630;2024-02-26T07:10:51;6.60;99.90
26655;DHT22;14278;50.784;4.630;2024-02-26T07:13:17;6.40;99.90
26655;DHT22;14278;50.784;4.630;2024-02-26T07:15:43;6.30;99.90
26655;DHT22;14278;50.784;4.630;2024-02-26T07:18:08;6.40;99.90
26655;DHT22;14278;50.784;4.630;2024-02-26T07:20:35;6.30;99.90
26655;DHT22;14278;50.784;4.630;2024-02-26T07:25:37;6.40;99.90
26655;DHT22;14278;50.784;4.630;2024-02-26T07:28:03;6.20;99.90
26655;DHT22;14278;50.784;4.630;2024-02-26T07:30:32;6.30;99.90
26655;DHT22;14278;50.784;4.630;2024-02-26T07:32:58;6.20;99.90
26655;DHT22;14278;50.784;4.630;2024-02-26T07:37:59;6.30;99.90
26655;DHT22;14278;50.784;4.630;2024-02-26T07:43:09;6.60;99.90
26655;DHT22;14278;50.784;4.630;2024-02-26T07:48:19;6.20;99.90
26655;DHT22;14278;50.784;4.630;2024-02-26T07:50:47;6.30;99.90
26655;DHT22;14278;50.784;4.630;2024-02-26T07:55:48;6.10;99.90
26655;DHT22;14278;50.784;4.630;2024-02-26T07:58:13;6.20;99.90
26655;DHT22;14278;50.784;4.630;2024-02-26T08:03:16;6.20;99.90
26655;DHT22;14278;50.784;4.630;2024-02-26T08:05:42;6.20;99.90
26655;DHT22;14278;50.784;4.630;2024-02-26T08:10:44;6.20;99.90
26655;DHT22;14278;50.784;4.630;2024-02-26T08:13:09;6.40;99.90
26655;DHT22;14278;50.784;4.630;2024-02-26T08:15:35;6.40;99.90
26655;DHT22;14278;50.784;4.630;2024-02-26T08:18:03;6.40;99.90
26655;DHT22;14278;50.784;4.630;2024-02-26T08:20:29;6.20;99.90
26655;DHT22;14278;50.784;4.630;2024-02-26T08:22:56;6.50;99.90
26655;DHT22;14278;50.784;4.630;2024-02-26T08:25:22;6.60;99.90
26655;DHT22;14278;50.784;4.630;2024-02-26T08:27:47;6.30;99.90
26655;DHT22;14278;50.784;4.630;2024-02-26T08:30:14;6.20;99.90
26655;DHT22;14278;50.784;4.630;2024-02-26T08:32:43;6.40;99.90
26655;DHT22;14278;50.784;4.630;2024-02-26T08:35:09;6.40;99.90
26655;DHT22;14278;50.784;4.630;2024-02-26T08:37:34;6.70;99.90
26655;DHT22;14278;50.784;4.630;2024-02-26T08:40:03;6.50;99.90
26655;DHT22;14278;50.784;4.630;2024-02-26T08:42:30;6.40;99.90
26655;DHT22;14278;50.784;4.630;2024-02-26T08:44:55;6.70;99.90
26655;DHT22;14278;50.784;4.630;2024-02-26T08:47:21;6.70;99.90
26655;DHT22;14278;50.784;4.630;2024-02-26T08:49:47;6.50;99.90
26655;DHT22;14278;50.784;4.630;2024-02-26T08:52:12;6.50;99.90
26655;DHT22;14278;50.784;4.630;2024-02-26T08:57:14;6.30;99.90
26655;DHT22;14278;50.784;4.630;2024-02-26T08:59:40;6.20;99.90
26655;DHT22;14278;50.784;4.630;2024-02-26T09:02:05;6.30;99.90
26655;DHT22;14278;50.784;4.630;2024-02-26T09:04:31;6.40;99.90
26655;DHT22;14278;50.784;4.630;2024-02-26T09:14:38;6.40;99.90
26655;DHT22;14278;50.784;4.630;2024-02-26T09:17:03;6.40;99.90
26655;DHT22;14278;50.784;4.630;2024-02-26T09:19:31;6.10;99.90
26655;DHT22;14278;50.784;4.630;2024-02-26T09:21:56;6.40;99.90
26655;DHT22;14278;50.784;4.630;2024-02-26T09:24:23;6.50;99.90
26655;DHT22;14278;50.784;4.630;2024-02-26T09:29:24;6.30;99.90
26655;DHT22;14278;50.784;4.630;2024-02-26T09:31:51;6.30;99.90
26655;DHT22;14278;50.784;4.630;2024-02-26T09:34:17;6.50;99.90
26655;DHT22;14278;50.784;4.630;2024-02-26T09:36:43;6.60;99.90
26655;DHT22;14278;50.784;4.630;2024-02-26T09:39:09;6.40;99.90
26655;DHT22;14278;50.784;4.630;2024-02-26T09:41:37;6.50;99.90
26655;DHT22;14278;50.784;4.630;2024-02-26T09:44:04;6.60;99.90
26655;DHT22;14278;50.784;4.630;2024-02-26T09:46:30;6.40;99.90
26655;DHT22;14278;50.784;4.630;2024-02-26T09:48:56;6.50;99.90
26655;DHT22;14278;50.784;4.630;2024-02-26T09:51:23;6.60;99.90
26655;DHT22;14278;50.784;4.630;2024-02-26T09:53:52;6.50;99.90
26655;DHT22;14278;50.784;4.630;2024-02-26T09:56:17;6.40;99.90
26655;DHT22;14278;50.784;4.630;2024-02-26T09:58:43;6.30;99.90
26655;DHT22;14278;50.784;4.630;2024-02-26T10:01:16;6.40;99.90
26655;DHT22;14278;50.784;4.630;2024-02-26T10:03:42;6.40;99.90
26655;DHT22;14278;50.784;4.630;2024-02-26T10:06:10;6.50;99.90
26655;DHT22;14278;50.784;4.630;2024-02-26T10:08:37;6.50;99.90
26655;DHT22;14278;50.784;4.630;2024-02-26T10:11:08;6.50;99.90
26655;DHT22;14278;50.784;4.630;2024-02-26T10:13:35;6.60;99.90
26655;DHT22;14278;50.784;4.630;2024-02-26T10:16:02;7.00;99.90
26655;DHT22;14278;50.784;4.630;2024-02-26T10:18:48;7.10;99.90
26655;DHT22;14278;50.784;4.630;2024-02-26T10:21:16;7.00;99.90
26655;DHT22;14278;50.784;4.630;2024-02-26T10:23:43;6.60;99.90
26655;DHT22;14278;50.784;4.630;2024-02-26T10:26:13;6.50;99.90
26655;DHT22;14278;50.784;4.630;2024-02-26T10:28:40;6.50;99.90
26655;DHT22;14278;50.784;4.630;2024-02-26T10:31:06;6.50;99.90
26655;DHT22;14278;50.784;4.630;2024-02-26T10:33:39;6.80;99.90
26655;DHT22;14278;50.784;4.630;2024-02-26T10:36:05;6.70;99.90
26655;DHT22;14278;50.784;4.630;2024-02-26T10:38:38;6.70;99.90
26655;DHT22;14278;50.784;4.630;2024-02-26T10:41:05;6.70;99.90
26655;DHT22;14278;50.784;4.630;2024-02-26T10:43:31;6.80;99.90
26655;DHT22;14278;50.784;4.630;2024-02-26T10:45:57;6.70;99.90
26655;DHT22;14278;50.784;4.630;2024-02-26T10:48:23;6.80;99.90
26655;DHT22;14278;50.784;4.630;2024-02-26T10:50:50;6.80;99.90
26655;DHT22;14278;50.784;4.630;2024-02-26T10:53:29;6.70;99.90
26655;DHT22;14278;50.784;4.630;2024-02-26T10:55:58;6.70;99.90
26655;DHT22;14278;50.784;4.630;2024-02-26T10:58:25;6.40;99.90
26655;DHT22;14278;50.784;4.630;2024-02-26T11:00:52;6.30;99.90
26655;DHT22;14278;50.784;4.630;2024-02-26T11:03:18;6.50;99.90
26655;DHT22;14278;50.784;4.630;2024-02-26T11:05:49;6.50;99.90
26655;DHT22;14278;50.784;4.630;2024-02-26T11:08:19;6.60;99.90
26655;DHT22;14278;50.784;4.630;2024-02-26T11:10:52;6.80;99.90
26655;DHT22;14278;50.784;4.630;2024-02-26T11:13:19;7.10;99.90
26655;DHT22;14278;50.784;4.630;2024-02-26T11:15:48;6.60;99.90
26655;DHT22;14278;50.784;4.630;2024-02-26T11:18:16;6.40;99.90
26655;DHT22;14278;50.784;4.630;2024-02-26T11:20:46;6.30;99.90
26655;DHT22;14278;50.784;4.630;2024-02-26T11:23:13;6.40;99.90
26655;DHT22;14278;50.784;4.630;2024-02-26T11:25:40;6.50;99.90
26655;DHT22;14278;50.784;4.630;2024-02-26T11:28:10;6.70;99.90
26655;DHT22;14278;50.784;4.630;2024-02-26T11:30:39;6.60;99.90
26655;DHT22;14278;50.784;4.630;2024-02-26T11:33:10;6.60;99.90
26655;DHT22;14278;50.784;4.630;2024-02-26T11:35:38;6.50;99.90
26655;DHT22;14278;50.784;4.630;2024-02-26T11:38:04;6.50;99.90
26655;DHT22;14278;50.784;4.630;2024-02-26T11:40:32;6.50;99.90
26655;DHT22;14278;50.784;4.630;2024-02-26T11:42:58;6.60;99.90
26655;DHT22;14278;50.784;4.630;2024-02-26T11:48:12;7.10;99.90
26655;DHT22;14278;50.784;4.630;2024-02-26T11:50:42;7.10;99.90
26655;DHT22;14278;50.784;4.630;2024-02-26T11:53:24;6.60;99.90
26655;DHT22;14278;50.784;4.630;2024-02-26T11:56:13;6.90;99.90
26655;DHT22;14278;50.784;4.630;2024-02-26T11:58:46;6.80;99.90
26655;DHT22;14278;50.784;4.630;2024-02-26T12:01:43;6.60;99.90
26655;DHT22;14278;50.784;4.630;2024-02-26T12:04:29;6.60;99.90
26655;DHT22;14278;50.784;4.630;2024-02-26T12:06:57;6.80;99.90
26655;DHT22;14278;50.784;4.630;2024-02-26T12:12:07;6.80;99.90
26655;DHT22;14278;50.784;4.630;2024-02-26T12:14:50;7.10;99.90
26655;DHT22;14278;50.784;4.630;2024-02-26T12:17:24;6.80;99.90
26655;DHT22;14278;50.784;4.630;2024-02-26T12:19:53;6.90;99.90
26655;DHT22;14278;50.784;4.630;2024-02-26T12:22:19;6.60;99.90
26655;DHT22;14278;50.784;4.630;2024-02-26T12:24:45;6.50;99.90
26655;DHT22;14278;50.784;4.630;2024-02-26T12:27:11;6.70;99.90
26655;DHT22;14278;50.784;4.630;2024-02-26T12:29:37;6.80;99.90
26655;DHT22;14278;50.784;4.630;2024-02-26T12:32:04;6.90;99.90
26655;DHT22;14278;50.784;4.630;2024-02-26T12:34:31;6.80;99.90
26655;DHT22;14278;50.784;4.630;2024-02-26T12:36:57;7.00;99.90
26655;DHT22;14278;50.784;4.630;2024-02-26T12:39:23;6.90;99.90
26655;DHT22;14278;50.784;4.630;2024-02-26T12:41:49;6.70;99.90
26655;DHT22;14278;50.784;4.630;2024-02-26T12:44:18;6.70;99.90
26655;DHT22;14278;50.784;4.630;2024-02-26T12:46:49;6.80;99.90
26655;DHT22;14278;50.784;4.630;2024-02-26T12:49:16;6.80;99.90
26655;DHT22;14278;50.784;4.630;2024-02-26T12:51:44;6.70;99.90
26655;DHT22;14278;50.784;4.630;2024-02-26T12:54:10;6.50;99.90
26655;DHT22;14278;50.784;4.630;2024-02-26T12:56:36;6.50;99.90
26655;DHT22;14278;50.784;4.630;2024-02-26T12:59:02;6.80;99.90
26655;DHT22;14278;50.784;4.630;2024-02-26T13:01:29;6.50;99.90
26655;DHT22;14278;50.784;4.630;2024-02-26T13:03:55;6.60;99.90
26655;DHT22;14278;50.784;4.630;2024-02-26T13:06:22;6.30;99.90
26655;DHT22;14278;50.784;4.630;2024-02-26T13:08:48;6.30;99.90
26655;DHT22;14278;50.784;4.630;2024-02-26T13:11:14;6.60;99.90
26655;DHT22;14278;50.784;4.630;2024-02-26T13:13:40;6.70;99.90
26655;DHT22;14278;50.784;4.630;2024-02-26T13:18:41;6.80;99.90
26655;DHT22;14278;50.784;4.630;2024-02-26T13:21:15;6.80;99.90
26655;DHT22;14278;50.784;4.630;2024-02-26T13:29:02;7.20;99.90
26655;DHT22;14278;50.784;4.630;2024-02-26T13:36:46;6.70;99.90
26655;DHT22;14278;50.784;4.630;2024-02-26T13:39:24;6.80;99.90
26655;DHT22;14278;50.784;4.630;2024-02-26T13:41:51;6.50;99.90
26655;DHT22;14278;50.784;4.630;2024-02-26T13:44:16;6.80;99.90
26655;DHT22;14278;50.784;4.630;2024-02-26T13:46:42;6.80;99.90
26655;DHT22;14278;50.784;4.630;2024-02-26T13:49:09;7.00;99.90
26655;DHT22;14278;50.784;4.630;2024-02-26T13:51:35;7.00;99.90
26655;DHT22;14278;50.784;4.630;2024-02-26T13:56:39;6.90;99.90
26655;DHT22;14278;50.784;4.630;2024-02-26T13:59:05;6.70;99.90
26655;DHT22;14278;50.784;4.630;2024-02-26T14:01:31;6.80;99.90
26655;DHT22;14278;50.784;4.630;2024-02-26T14:03:58;6.80;99.90
26655;DHT22;14278;50.784;4.630;2024-02-26T14:06:24;7.20;99.90
26655;DHT22;14278;50.784;4.630;2024-02-26T14:08:50;6.90;99.90
26655;DHT22;14278;50.784;4.630;2024-02-26T14:11:15;6.80;99.90
26655;DHT22;14278;50.784;4.630;2024-02-26T14:13:41;6.70;99.90
26655;DHT22;14278;50.784;4.630;2024-02-26T14:16:07;6.90;99.90
26655;DHT22;14278;50.784;4.630;2024-02-26T14:21:08;6.80;99.90
26655;DHT22;14278;50.784;4.630;2024-02-26T14:23:34;6.70;99.90
26655;DHT22;14278;50.784;4.630;2024-02-26T14:26:00;6.40;99.90
26655;DHT22;14278;50.784;4.630;2024-02-26T14:28:26;6.40;99.90
26655;DHT22;14278;50.784;4.630;2024-02-26T14:30:54;6.30;99.90
26655;DHT22;14278;50.784;4.630;2024-02-26T14:33:19;6.30;99.90
26655;DHT22;14278;50.784;4.630;2024-02-26T14:35:45;6.60;99.90
26655;DHT22;14278;50.784;4.630;2024-02-26T14:38:12;6.70;99.90
26655;DHT22;14278;50.784;4.630;2024-02-26T14:40:38;6.60;99.90
26655;DHT22;14278;50.784;4.630;2024-02-26T14:43:04;6.70;99.90
26655;DHT22;14278;50.784;4.630;2024-02-26T14:45:30;6.50;99.90
26655;DHT22;14278;50.784;4.630;2024-02-26T14:47:56;6.80;99.90
26655;DHT22;14278;50.784;4.630;2024-02-26T14:50:21;6.50;99.90
26655;DHT22;14278;50.784;4.630;2024-02-26T14:52:47;6.80;99.90
26655;DHT22;14278;50.784;4.630;2024-02-26T14:55:13;6.70;99.90
26655;DHT22;14278;50.784;4.630;2024-02-26T14:57:39;7.20;99.90
26655;DHT22;14278;50.784;4.630;2024-02-26T15:00:05;7.00;99.90
26655;DHT22;14278;50.784;4.630;2024-02-26T15:02:32;7.00;99.90
26655;DHT22;14278;50.784;4.630;2024-02-26T15:04:58;6.90;99.90
26655;DHT22;14278;50.784;4.630;2024-02-26T15:07:23;7.30;99.90
26655;DHT22;14278;50.784;4.630;2024-02-26T15:09:49;7.20;99.90
26655;DHT22;14278;50.784;4.630;2024-02-26T15:12:21;6.90;99.90
26655;DHT22;14278;50.784;4.630;2024-02-26T15:14:47;6.80;99.90
26655;DHT22;14278;50.784;4.630;2024-02-26T15:17:13;7.10;99.90
26655;DHT22;14278;50.784;4.630;2024-02-26T15:19:39;6.80;99.90
26655;DHT22;14278;50.784;4.630;2024-02-26T15:22:07;6.80;99.90
26655;DHT22;14278;50.784;4.630;2024-02-26T15:24:33;6.60;99.90
26655;DHT22;14278;50.784;4.630;2024-02-26T15:26:59;6.70;99.90
26655;DHT22;14278;50.784;4.630;2024-02-26T15:29:24;6.40;99.90
26655;DHT22;14278;50.784;4.630;2024-02-26T15:31:50;6.60;99.90
26655;DHT22;14278;50.784;4.630;2024-02-26T15:34:16;6.70;99.90
26655;DHT22;14278;50.784;4.630;2024-02-26T15:36:41;6.80;99.90
26655;DHT22;14278;50.784;4.630;2024-02-26T15:39:07;7.10;99.90
26655;DHT22;14278;50.784;4.630;2024-02-26T15:41:33;7.00;99.90
26655;DHT22;14278;50.784;4.630;2024-02-26T15:43:58;6.90;99.90
26655;DHT22;14278;50.784;4.630;2024-02-26T15:46:26;6.70;99.90
26655;DHT22;14278;50.784;4.630;2024-02-26T15:48:52;6.30;99.90
26655;DHT22;14278;50.784;4.630;2024-02-26T15:51:22;6.70;99.90
26655;DHT22;14278;50.784;4.630;2024-02-26T15:53:49;6.80;99.90
26655;DHT22;14278;50.784;4.630;2024-02-26T15:56:15;6.70;99.90
26655;DHT22;14278;50.784;4.630;2024-02-26T15:58:42;6.90;99.90
26655;DHT22;14278;50.784;4.630;2024-02-26T16:01:07;6.90;99.90
26655;DHT22;14278;50.784;4.630;2024-02-26T16:03:42;6.50;99.90
26655;DHT22;14278;50.784;4.630;2024-02-26T16:06:14;6.90;99.90
26655;DHT22;14278;50.784;4.630;2024-02-26T16:08:41;6.80;99.90
26655;DHT22;14278;50.784;4.630;2024-02-26T16:11:07;6.60;99.90
26655;DHT22;14278;50.784;4.630;2024-02-26T16:13:33;6.60;99.90
26655;DHT22;14278;50.784;4.630;2024-02-26T16:16:06;6.50;99.90
26655;DHT22;14278;50.784;4.630;2024-02-26T16:18:34;6.90;99.90
26655;DHT22;14278;50.784;4.630;2024-02-26T16:21:00;7.20;99.90
26655;DHT22;14278;50.784;4.630;2024-02-26T16:23:25;7.40;99.90
26655;DHT22;14278;50.784;4.630;2024-02-26T16:25:51;6.90;99.90
26655;DHT22;14278;50.784;4.630;2024-02-26T16:28:27;6.70;99.90
26655;DHT22;14278;50.784;4.630;2024-02-26T16:30:56;6.90;99.90
26655;DHT22;14278;50.784;4.630;2024-02-26T16:33:22;7.00;99.90
26655;DHT22;14278;50.784;4.630;2024-02-26T16:35:48;6.90;99.90
26655;DHT22;14278;50.784;4.630;2024-02-26T16:38:14;7.10;99.90
26655;DHT22;14278;50.784;4.630;2024-02-26T16:40:43;7.20;99.90
26655;DHT22;14278;50.784;4.630;2024-02-26T16:43:08;7.10;99.90
26655;DHT22;14278;50.784;4.630;2024-02-26T16:45:34;6.80;99.90
26655;DHT22;14278;50.784;4.630;2024-02-26T16:48:00;6.70;99.90
26655;DHT22;14278;50.784;4.630;2024-02-26T16:50:25;6.80;99.90
26655;DHT22;14278;50.784;4.630;2024-02-26T16:52:51;7.10;99.90
26655;DHT22;14278;50.784;4.630;2024-02-26T16:55:17;6.70;99.90
26655;DHT22;14278;50.784;4.630;2024-02-26T16:57:43;6.70;99.90
26655;DHT22;14278;50.784;4.630;2024-02-26T17:00:09;6.70;99.90
26655;DHT22;14278;50.784;4.630;2024-02-26T17:02:38;6.70;99.90
26655;DHT22;14278;50.784;4.630;2024-02-26T17:05:04;6.40;99.90
26655;DHT22;14278;50.784;4.630;2024-02-26T17:07:33;6.70;99.90
26655;DHT22;14278;50.784;4.630;2024-02-26T17:09:58;6.80;99.90
26655;DHT22;14278;50.784;4.630;2024-02-26T17:12:24;6.50;99.90
26655;DHT22;14278;50.784;4.630;2024-02-26T17:14:50;6.80;99.90
26655;DHT22;14278;50.784;4.630;2024-02-26T17:17:17;6.80;99.90
26655;DHT22;14278;50.784;4.630;2024-02-26T17:19:42;7.00;99.90
26655;DHT22;14278;50.784;4.630;2024-02-26T17:22:08;7.00;99.90
26655;DHT22;14278;50.784;4.630;2024-02-26T17:24:36;6.80;99.90
26655;DHT22;14278;50.784;4.630;2024-02-26T17:27:02;6.50;99.90
26655;DHT22;14278;50.784;4.630;2024-02-26T17:34:39;6.60;99.90
26655;DHT22;14278;50.784;4.630;2024-02-26T17:37:04;6.70;99.90
26655;DHT22;14278;50.784;4.630;2024-02-26T17:39:30;6.60;99.90
26655;DHT22;14278;50.784;4.630;2024-02-26T17:47:01;7.10;99.90
26655;DHT22;14278;50.784;4.630;2024-02-26T17:52:26;6.90;99.90
26655;DHT22;14278;50.784;4.630;2024-02-26T17:54:52;7.10;99.90
26655;DHT22;14278;50.784;4.630;2024-02-26T17:57:18;6.80;99.90
26655;DHT22;14278;50.784;4.630;2024-02-26T17:59:43;6.70;99.90
26655;DHT22;14278;50.784;4.630;2024-02-26T18:02:09;6.80;99.90
26655;DHT22;14278;50.784;4.630;2024-02-26T18:04:35;6.90;99.90
26655;DHT22;14278;50.784;4.630;2024-02-26T18:09:37;7.10;99.90
26655;DHT22;14278;50.784;4.630;2024-02-26T18:12:14;7.40;99.90
26655;DHT22;14278;50.784;4.630;2024-02-26T18:14:40;7.40;99.90
26655;DHT22;14278;50.784;4.630;2024-02-26T18:17:05;7.10;99.90
26655;DHT22;14278;50.784;4.630;2024-02-26T18:19:31;7.10;99.90
26655;DHT22;14278;50.784;4.630;2024-02-26T18:21:58;6.90;99.90
26655;DHT22;14278;50.784;4.630;2024-02-26T18:24:25;7.10;99.90
26655;DHT22;14278;50.784;4.630;2024-02-26T18:26:51;7.10;99.90
26655;DHT22;14278;50.784;4.630;2024-02-26T18:29:17;7.20;99.90
26655;DHT22;14278;50.784;4.630;2024-02-26T18:31:43;7.40;99.90
26655;DHT22;14278;50.784;4.630;2024-02-26T18:34:09;7.10;99.90